Bark River, Michigan
Current Conditions -  °F | °C
As of 8:35 AM on Tuesday 21 Oct 2014 (Local Time) from KESC Reporting Station
Overcast Overcast  
Wind Chill:   Ceiling: 2100
Heat Index:   Visibility: 10mi
Dew Point:   Wind: 7mph
Humidity: 70%   Direction: 10°N
Pressure: 30.18"   Gusts: NA
Location:  45.71°N, 87.3°W
Report Text: KESC 211235Z AUTO 01006KT 10SM OVC021 06/01 A3018 RMK AO1
Loading
Personal Weather Stations






























Interactive Weather Map
Tropical Storm Tracking
New forecast layout! Learn more

10-Day Weather Forecast

Advertisements
Track Severe Weather on mobile